Time;durP1;ratioP1;P1;durP2;ratioP2;P2;SDS_P1;SDS_P2;PMS_P1;PMS_P2;Temp;Humidity;BMP_temperature;BMP_pressure;BME280_temperature;BME280_humidity;BME280_pressure;Samples;Min_cycle;Max_cycle;Signal;HPM_P1;HPM_P2
2023/04/25 00:00:53;;;;;;;11.38;2.67;;;;;;;-145.50;100.00;65435.88;5023573;28;20294;-71
2023/04/25 00:03:20;;;;;;;5.97;2.13;;;;;;;-145.50;100.00;65435.88;5045196;28;20056;-71
2023/04/25 00:05:47;;;;;;;11.45;2.58;;;;;;;-145.50;100.00;65435.88;5033403;28;20057;-69
2023/04/25 00:08:14;;;;;;;10.45;2.40;;;;;;;-145.50;100.00;65435.88;5042599;28;20092;-69
2023/04/25 00:10:41;;;;;;;8.18;2.55;;;;;;;-145.50;100.00;65435.88;5057110;28;20502;-71
2023/04/25 00:13:08;;;;;;;13.65;3.15;;;;;;;-145.50;100.00;65435.88;5048703;28;20057;-70
2023/04/25 00:15:35;;;;;;;9.57;2.85;;;;;;;-145.50;100.00;65435.88;5050387;28;20567;-71
2023/04/25 00:18:02;;;;;;;13.75;2.40;;;;;;;-145.50;100.00;65435.88;5044405;28;20051;-71
2023/04/25 00:20:29;;;;;;;12.05;2.70;;;;;;;-145.50;100.00;65435.88;5040047;28;20083;-69
2023/04/25 00:22:56;;;;;;;11.95;2.78;;;;;;;-145.50;100.00;65435.88;5048129;28;20060;-71
2023/04/25 00:25:23;;;;;;;11.68;2.72;;;;;;;-145.50;100.00;65435.88;5044777;28;20560;-70
2023/04/25 00:27:49;;;;;;;11.27;2.60;;;;;;;-145.50;100.00;65435.88;5059075;28;20048;-68
2023/04/25 00:30:16;;;;;;;14.77;3.08;;;;;;;-145.50;100.00;65435.88;5024398;28;20516;-69
2023/04/25 00:32:42;;;;;;;14.35;3.03;;;;;;;-145.50;100.00;65435.88;5033564;28;20507;-69
2023/04/25 00:35:09;;;;;;;16.45;3.17;;;;;;;-145.50;100.00;65435.88;5063678;28;20470;-69
2023/04/25 00:37:36;;;;;;;11.38;3.40;;;;;;;-145.50;100.00;65435.88;5032520;28;20060;-69
2023/04/25 00:40:06;;;;;;;16.67;3.08;;;;;;;-145.50;100.00;65435.88;5030028;28;20063;-69
2023/04/25 00:42:32;;;;;;;12.98;2.83;;;;;;;-145.50;100.00;65435.88;5044782;28;20131;-69
2023/04/25 00:44:59;;;;;;;15.07;3.03;;;;;;;-145.50;100.00;65435.88;5047916;28;20048;-69
2023/04/25 00:47:26;;;;;;;16.08;3.28;;;;;;;-145.50;100.00;65435.88;5042212;28;20051;-70
2023/04/25 00:49:53;;;;;;;15.10;3.72;;;;;;;-145.50;100.00;65435.88;5053725;28;20076;-69
2023/04/25 00:52:20;;;;;;;11.43;3.10;;;;;;;-145.50;100.00;65435.88;5049113;28;20076;-69
2023/04/25 00:54:47;;;;;;;12.45;3.10;;;;;;;-145.50;100.00;65435.88;5050962;28;20665;-70
2023/04/25 00:57:13;;;;;;;11.05;3.28;;;;;;;-145.50;100.00;65435.88;5039704;28;20045;-69
2023/04/25 00:59:44;;;;;;;11.98;3.35;;;;;;;-145.50;100.00;65435.88;5036622;28;20056;-70
2023/04/25 01:02:12;;;;;;;8.63;2.70;;;;;;;-145.50;100.00;65435.88;5049616;28;20049;-72
2023/04/25 01:04:38;;;;;;;12.80;3.03;;;;;;;-145.50;100.00;65435.88;5041028;28;20045;-69
2023/04/25 01:07:05;;;;;;;18.35;3.22;;;;;;;-145.50;100.00;65435.88;5050807;28;20075;-70
2023/04/25 01:09:31;;;;;;;15.25;3.50;;;;;;;-145.50;100.00;65435.88;5053125;28;20061;-69
2023/04/25 01:11:58;;;;;;;10.80;3.08;;;;;;;-145.50;100.00;65435.88;5039871;28;20053;-70
2023/04/25 01:14:24;;;;;;;9.70;2.92;;;;;;;-145.50;100.00;65435.88;5055504;28;20049;-69
2023/04/25 01:16:52;;;;;;;12.50;3.40;;;;;;;-145.50;100.00;65435.88;5042083;28;20049;-69
2023/04/25 01:19:19;;;;;;;15.75;2.97;;;;;;;-145.50;100.00;65435.88;5047146;28;20535;-69
2023/04/25 01:21:46;;;;;;;11.43;3.42;;;;;;;-145.50;100.00;65435.88;5050289;28;20053;-69
2023/04/25 01:24:13;;;;;;;11.90;3.38;;;;;;;-145.50;100.00;65435.88;5052836;28;20051;-72
2023/04/25 01:26:44;;;;;;;9.50;3.13;;;;;;;-145.50;100.00;65435.88;5047653;28;20103;-70
2023/04/25 01:29:11;;;;;;;15.13;3.13;;;;;;;-145.50;100.00;65435.88;5044639;28;20059;-70
2023/04/25 01:31:38;;;;;;;8.93;2.75;;;;;;;-145.50;100.00;65435.88;5046946;28;20053;-69
2023/04/25 01:34:04;;;;;;;9.38;2.90;;;;;;;-145.50;100.00;65435.88;5044194;28;20686;-70
2023/04/25 01:36:31;;;;;;;14.60;3.00;;;;;;;-145.50;100.00;65435.88;5053102;28;20080;-69
2023/04/25 01:38:58;;;;;;;9.95;3.78;;;;;;;-145.50;100.00;65435.88;5049713;28;20056;-69
2023/04/25 01:41:24;;;;;;;16.67;4.45;;;;;;;-145.50;100.00;65435.88;5036046;28;20080;-70
2023/04/25 01:43:51;;;;;;;11.73;3.10;;;;;;;-145.50;100.00;65435.88;5055042;28;20068;-71
2023/04/25 01:46:18;;;;;;;11.43;3.70;;;;;;;-145.50;100.00;65435.88;5038419;28;20052;-69
2023/04/25 01:48:45;;;;;;;9.43;3.30;;;;;;;-145.50;100.00;65435.88;5052928;28;20076;-70
2023/04/25 01:51:12;;;;;;;13.00;3.67;;;;;;;-145.50;100.00;65435.88;5042142;28;20179;-70
2023/04/25 01:53:39;;;;;;;9.63;2.90;;;;;;;-145.50;100.00;65435.88;5046148;28;20124;-69
2023/04/25 01:56:06;;;;;;;17.17;3.15;;;;;;;-145.50;100.00;65435.88;5023830;28;20617;-70
2023/04/25 01:58:33;;;;;;;12.65;3.40;;;;;;;-145.50;100.00;65435.88;5053748;28;20052;-69
2023/04/25 02:00:59;;;;;;;13.00;3.53;;;;;;;-145.50;100.00;65435.88;5051076;28;20044;-69
2023/04/25 02:03:26;;;;;;;11.98;3.35;;;;;;;-145.50;100.00;65435.88;5043569;28;20567;-69
2023/04/25 02:05:52;;;;;;;10.90;3.42;;;;;;;-145.50;100.00;65435.88;5050197;28;20504;-70
2023/04/25 02:08:19;;;;;;;16.20;3.70;;;;;;;-145.50;100.00;65435.88;5048669;28;20049;-69
2023/04/25 02:10:46;;;;;;;13.57;3.38;;;;;;;-145.50;100.00;65435.88;5051408;28;20053;-69
2023/04/25 02:13:12;;;;;;;12.77;2.92;;;;;;;-145.50;100.00;65435.88;5057201;28;20091;-69
2023/04/25 02:15:39;;;;;;;16.40;3.30;;;;;;;-145.50;100.00;65435.88;5042622;28;20167;-70
2023/04/25 02:18:06;;;;;;;10.57;3.08;;;;;;;-145.50;100.00;65435.88;5055082;28;20060;-69
2023/04/25 02:20:33;;;;;;;14.23;3.83;;;;;;;-145.50;100.00;65435.88;5031846;28;20055;-70
2023/04/25 02:22:59;;;;;;;14.65;3.53;;;;;;;-145.50;100.00;65435.88;5042454;28;20048;-69
2023/04/25 02:25:26;;;;;;;11.30;3.00;;;;;;;-145.50;100.00;65435.88;5032424;28;20044;-71
2023/04/25 02:27:52;;;;;;;12.38;3.47;;;;;;;-145.50;100.00;65435.88;5056587;28;20510;-70
2023/04/25 02:30:19;;;;;;;19.08;3.42;;;;;;;-145.50;100.00;65435.88;5052404;28;20049;-70
2023/04/25 02:32:46;;;;;;;15.15;4.22;;;;;;;-145.50;100.00;65435.88;5022228;28;20081;-72
2023/04/25 02:35:13;;;;;;;16.70;3.95;;;;;;;-145.50;100.00;65435.88;5047049;28;20049;-72
2023/04/25 02:37:40;;;;;;;11.35;3.15;;;;;;;-145.50;100.00;65435.88;5038449;28;20128;-68
2023/04/25 02:40:08;;;;;;;14.68;3.70;;;;;;;-145.50;100.00;65435.88;5047026;28;20076;-70
2023/04/25 02:42:35;;;;;;;9.35;3.67;;;;;;;-145.50;100.00;65435.88;5046438;28;20148;-70
2023/04/25 02:45:02;;;;;;;22.05;4.32;;;;;;;-145.50;100.00;65435.88;5048635;28;20570;-70
2023/04/25 02:47:29;;;;;;;15.15;3.97;;;;;;;-145.50;100.00;65435.88;5057605;28;20130;-69
2023/04/25 02:49:55;;;;;;;15.13;3.75;;;;;;;-145.50;100.00;65435.88;5047404;28;20045;-69
2023/04/25 02:52:22;;;;;;;12.80;3.53;;;;;;;-145.50;100.00;65435.88;5050141;28;20505;-70
2023/04/25 02:54:49;;;;;;;13.55;3.80;;;;;;;-145.50;100.00;65435.88;5040892;28;20564;-70
2023/04/25 02:57:15;;;;;;;11.77;3.30;;;;;;;-145.50;100.00;65435.88;5059747;28;20057;-70
2023/04/25 02:59:41;;;;;;;11.73;3.30;;;;;;;-145.50;100.00;65435.88;5023347;28;20053;-71
2023/04/25 03:02:08;;;;;;;13.65;4.47;;;;;;;-145.50;100.00;65435.88;5023939;28;20067;-70
2023/04/25 03:04:34;;;;;;;20.10;3.97;;;;;;;-145.50;100.00;65435.88;5030062;28;20060;-70
2023/04/25 03:07:01;;;;;;;13.45;3.60;;;;;;;-145.50;100.00;65435.88;5041530;28;20048;-71
2023/04/25 03:09:27;;;;;;;19.60;3.88;;;;;;;-145.50;100.00;65435.88;5047747;28;20144;-69
2023/04/25 03:11:54;;;;;;;13.95;3.38;;;;;;;-145.50;100.00;65435.88;5038297;28;20057;-71
2023/04/25 03:14:20;;;;;;;18.83;3.88;;;;;;;-145.50;100.00;65435.88;5030176;28;20052;-70
2023/04/25 03:16:47;;;;;;;18.58;3.63;;;;;;;-145.50;100.00;65435.88;5047483;28;20057;-69
2023/04/25 03:19:15;;;;;;;15.70;4.00;;;;;;;-145.50;100.00;65435.88;5048068;28;20049;-69
2023/04/25 03:21:43;;;;;;;10.63;2.95;;;;;;;-145.50;100.00;65435.88;5047746;28;20155;-70
2023/04/25 03:24:10;;;;;;;12.05;3.55;;;;;;;-145.50;100.00;65435.88;5026667;28;20073;-69
2023/04/25 03:26:37;;;;;;;12.77;3.45;;;;;;;-145.50;100.00;65435.88;5036196;28;20068;-70
2023/04/25 03:29:03;;;;;;;12.65;3.38;;;;;;;-145.50;100.00;65435.88;5042845;28;20071;-69
2023/04/25 03:31:30;;;;;;;16.88;3.88;;;;;;;-145.50;100.00;65435.88;5058540;28;20048;-69
2023/04/25 03:33:57;;;;;;;13.77;3.70;;;;;;;-145.50;100.00;65435.88;5057426;28;20049;-69
2023/04/25 03:36:24;;;;;;;12.45;3.67;;;;;;;-145.50;100.00;65435.88;5023932;28;20045;-70
2023/04/25 03:38:50;;;;;;;16.50;3.53;;;;;;;-145.50;100.00;65435.88;5054493;28;20095;-69
2023/04/25 03:41:16;;;;;;;14.70;3.28;;;;;;;-145.50;100.00;65435.88;5025627;28;20617;-71
2023/04/25 03:43:43;;;;;;;12.57;3.63;;;;;;;-145.50;100.00;65435.88;5039703;28;20048;-70
2023/04/25 03:46:09;;;;;;;17.15;3.22;;;;;;;-145.50;100.00;65435.88;5044627;28;20041;-69
2023/04/25 03:48:36;;;;;;;16.70;2.95;;;;;;;-145.50;100.00;65435.88;5030712;28;20548;-69
2023/04/25 03:51:03;;;;;;;11.48;3.80;;;;;;;-145.50;100.00;65435.88;5042484;28;20065;-69
2023/04/25 03:53:29;;;;;;;12.55;3.33;;;;;;;-145.50;100.00;65435.88;5051544;28;20116;-70
2023/04/25 03:55:56;;;;;;;11.65;3.38;;;;;;;-145.50;100.00;65435.88;5048816;28;20045;-70
2023/04/25 03:58:24;;;;;;;12.63;3.60;;;;;;;-145.50;100.00;65435.88;5027293;28;20053;-69
2023/04/25 04:00:50;;;;;;;17.27;3.70;;;;;;;-145.50;100.00;65435.88;5051842;28;20046;-70
2023/04/25 04:03:17;;;;;;;12.85;3.00;;;;;;;-145.50;100.00;65435.88;5046385;28;20892;-70
2023/04/25 04:05:45;;;;;;;13.60;3.63;;;;;;;-145.50;100.00;65435.88;5050766;28;20057;-72
2023/04/25 04:08:12;;;;;;;12.32;3.70;;;;;;;-145.50;100.00;65435.88;5059555;28;20056;-72
2023/04/25 04:10:38;;;;;;;11.43;3.58;;;;;;;-145.50;100.00;65435.88;5020253;28;20087;-69
2023/04/25 04:13:05;;;;;;;17.67;3.80;;;;;;;-145.50;100.00;65435.88;5043113;28;20509;-70
2023/04/25 04:15:32;;;;;;;17.80;3.58;;;;;;;-145.50;100.00;65435.88;5047789;28;20045;-70
2023/04/25 04:18:02;;;;;;;8.77;3.65;;;;;;;-145.50;100.00;65435.88;5061739;28;20489;-70
2023/04/25 04:20:32;;;;;;;13.70;4.00;;;;;;;-145.50;100.00;65435.88;5038358;28;20057;-70
2023/04/25 04:22:58;;;;;;;10.75;3.55;;;;;;;-145.50;100.00;65435.88;5049346;28;20044;-69
2023/04/25 04:25:26;;;;;;;17.08;3.63;;;;;;;-145.50;100.00;65435.88;5043924;28;20048;-72
2023/04/25 04:27:54;;;;;;;14.77;4.03;;;;;;;-145.50;100.00;65435.88;5040683;28;20049;-70
2023/04/25 04:30:25;;;;;;;10.88;3.97;;;;;;;-145.50;100.00;65435.88;5054806;28;20060;-69
2023/04/25 04:32:52;;;;;;;11.40;3.83;;;;;;;-145.50;100.00;65435.88;5053660;28;20132;-69
2023/04/25 04:35:18;;;;;;;14.27;4.10;;;;;;;-145.50;100.00;65435.88;5058837;28;20092;-71
2023/04/25 04:37:45;;;;;;;11.38;3.78;;;;;;;-145.50;100.00;65435.88;5044328;28;20493;-70
2023/04/25 04:40:15;;;;;;;14.23;4.35;;;;;;;-145.50;100.00;65435.88;5046542;28;20137;-71
2023/04/25 04:42:42;;;;;;;12.50;4.53;;;;;;;-145.50;100.00;65435.88;5047327;28;20049;-71
2023/04/25 04:45:10;;;;;;;10.57;3.90;;;;;;;-145.50;100.00;65435.88;5033139;28;20609;-69
2023/04/25 04:47:37;;;;;;;12.02;4.15;;;;;;;-145.50;100.00;65435.88;5051435;28;20048;-70
2023/04/25 04:50:03;;;;;;;13.65;4.80;;;;;;;-145.50;100.00;65435.88;5051536;28;20103;-69
2023/04/25 04:52:30;;;;;;;13.60;4.53;;;;;;;-145.50;100.00;65435.88;5048321;28;20094;-70
2023/04/25 04:54:57;;;;;;;14.10;4.25;;;;;;;-145.50;100.00;65435.88;5047979;28;20243;-69
2023/04/25 04:57:23;;;;;;;13.77;4.28;;;;;;;-145.50;100.00;65435.88;5049517;28;20094;-70
2023/04/25 04:59:50;;;;;;;17.65;4.60;;;;;;;-145.50;100.00;65435.88;5065682;28;20056;-69
2023/04/25 05:02:16;;;;;;;10.18;4.05;;;;;;;-145.50;100.00;65435.88;5052239;28;20083;-69
2023/04/25 05:04:43;;;;;;;24.42;5.25;;;;;;;-145.50;100.00;65435.88;5059317;28;20060;-70
2023/04/25 05:07:09;;;;;;;18.33;5.30;;;;;;;-145.50;100.00;65435.88;5045602;28;20297;-70
2023/04/25 05:09:36;;;;;;;14.02;4.38;;;;;;;-145.50;100.00;65435.88;5045622;28;20083;-69
2023/04/25 05:12:03;;;;;;;13.52;3.88;;;;;;;-145.50;100.00;65435.88;5042810;28;20063;-70
2023/04/25 05:14:30;;;;;;;13.75;3.85;;;;;;;-145.50;100.00;65435.88;5060884;28;20462;-69
2023/04/25 05:16:56;;;;;;;17.92;4.07;;;;;;;-145.50;100.00;65435.88;5050886;28;20076;-69
2023/04/25 05:19:23;;;;;;;10.05;3.15;;;;;;;-145.50;100.00;65435.88;5048193;28;20084;-70
2023/04/25 05:21:50;;;;;;;15.13;3.80;;;;;;;-145.50;100.00;65435.88;5046748;28;20048;-69
2023/04/25 05:24:16;;;;;;;12.65;3.67;;;;;;;-145.50;100.00;65435.88;5043639;28;20094;-69
2023/04/25 05:26:43;;;;;;;14.90;3.28;;;;;;;-145.50;100.00;65435.88;5052891;28;20049;-70
2023/04/25 05:29:09;;;;;;;11.27;3.30;;;;;;;-145.50;100.00;65435.88;5044026;28;20059;-70
2023/04/25 05:31:36;;;;;;;17.55;3.90;;;;;;;-145.50;100.00;65435.88;5047014;28;20344;-69
2023/04/25 05:34:02;;;;;;;14.43;3.10;;;;;;;-145.50;100.00;65435.88;5050226;28;20045;-70
2023/04/25 05:36:30;;;;;;;10.52;3.15;;;;;;;-145.50;100.00;65435.88;5039947;28;20071;-70
2023/04/25 05:38:57;;;;;;;16.83;2.80;;;;;;;-145.50;100.00;65435.88;5059303;28;20049;-70
2023/04/25 05:41:23;;;;;;;11.77;3.33;;;;;;;-145.50;100.00;65435.88;5053370;28;20356;-70
2023/04/25 05:43:50;;;;;;;11.13;3.30;;;;;;;-145.50;100.00;65435.88;5032679;28;20041;-70
2023/04/25 05:46:18;;;;;;;16.42;3.53;;;;;;;-145.50;100.00;65435.88;5026694;28;20049;-69
2023/04/25 05:48:45;;;;;;;14.45;4.15;;;;;;;-145.50;100.00;65435.88;5058713;28;20135;-69
2023/04/25 05:51:11;;;;;;;15.15;3.72;;;;;;;-145.50;100.00;65435.88;5054886;28;20053;-70
2023/04/25 05:53:38;;;;;;;14.25;3.40;;;;;;;-145.50;100.00;65435.88;5041204;28;20076;-69
2023/04/25 05:56:04;;;;;;;14.07;4.00;;;;;;;-145.50;100.00;65435.88;5031614;28;20048;-70
2023/04/25 05:58:31;;;;;;;12.65;3.40;;;;;;;-145.50;100.00;65435.88;5045038;28;20244;-69
2023/04/25 06:00:58;;;;;;;11.63;3.97;;;;;;;-145.50;100.00;65435.88;5050260;28;20057;-69
2023/04/25 06:03:24;;;;;;;20.58;3.85;;;;;;;-145.50;100.00;65435.88;5041876;28;20226;-70
2023/04/25 06:05:51;;;;;;;14.10;3.13;;;;;;;-145.50;100.00;65435.88;5057768;28;20493;-68
2023/04/25 06:08:18;;;;;;;11.63;3.05;;;;;;;-145.50;100.00;65435.88;5047774;28;20060;-70
2023/04/25 06:10:45;;;;;;;11.90;2.88;;;;;;;-145.50;100.00;65435.88;5053318;28;20460;-69
2023/04/25 06:13:11;;;;;;;9.32;3.42;;;;;;;-145.50;100.00;65435.88;5054301;28;20059;-71
2023/04/25 06:15:38;;;;;;;12.23;2.97;;;;;;;-145.50;100.00;65435.88;5052196;28;20064;-72
2023/04/25 06:18:04;;;;;;;14.48;3.28;;;;;;;-145.50;100.00;65435.88;5053370;28;20083;-72
2023/04/25 06:20:31;;;;;;;12.88;3.28;;;;;;;-145.50;100.00;65435.88;5056957;28;20642;-72
2023/04/25 06:22:57;;;;;;;15.70;3.20;;;;;;;-145.50;100.00;65435.88;5036884;28;20045;-73
2023/04/25 06:25:24;;;;;;;11.77;3.40;;;;;;;-145.50;100.00;65435.88;5049976;28;20059;-72
2023/04/25 06:27:50;;;;;;;12.02;3.17;;;;;;;-145.50;100.00;65435.88;5048711;28;20509;-72
2023/04/25 06:30:22;;;;;;;15.70;3.42;;;;;;;-145.50;100.00;65435.88;5054958;28;20152;-72
2023/04/25 06:32:48;;;;;;;13.57;4.13;;;;;;;-145.50;100.00;65435.88;5050940;28;20055;-72
2023/04/25 06:35:15;;;;;;;12.48;3.40;;;;;;;-145.50;100.00;65435.88;5053299;28;20076;-72
2023/04/25 06:37:41;;;;;;;13.52;3.13;;;;;;;-145.50;100.00;65435.88;5060314;28;20474;-71
2023/04/25 06:40:08;;;;;;;12.82;3.65;;;;;;;-145.50;100.00;65435.88;5033835;28;20060;-72
2023/04/25 06:42:35;;;;;;;13.02;3.45;;;;;;;-145.50;100.00;65435.88;5049351;28;20208;-72
2023/04/25 06:45:02;;;;;;;13.15;3.95;;;;;;;-145.50;100.00;65435.88;5036473;28;20756;-72
2023/04/25 06:47:29;;;;;;;12.95;3.47;;;;;;;-145.50;100.00;65435.88;5036262;28;20059;-73
2023/04/25 06:49:56;;;;;;;11.50;3.40;;;;;;;-145.50;100.00;65435.88;5045522;28;20041;-73
2023/04/25 06:52:23;;;;;;;10.45;2.95;;;;;;;-145.50;100.00;65435.88;5034506;28;20053;-73
2023/04/25 06:54:49;;;;;;;18.58;3.65;;;;;;;-145.50;100.00;65435.88;5047856;28;20394;-72
2023/04/25 06:57:16;;;;;;;13.40;2.90;;;;;;;-145.50;100.00;65435.88;5047070;28;20056;-73
2023/04/25 06:59:42;;;;;;;19.15;4.00;;;;;;;-145.50;100.00;65435.88;5060613;28;20051;-72
2023/04/25 07:02:08;;;;;;;9.30;2.58;;;;;;;-145.50;100.00;65435.88;5021716;28;20583;-72
2023/04/25 07:04:35;;;;;;;14.77;3.53;;;;;;;-145.50;100.00;65435.88;5034413;28;20045;-72
2023/04/25 07:07:03;;;;;;;16.75;4.10;;;;;;;-145.50;100.00;65435.88;5030793;28;20119;-72
2023/04/25 07:09:30;;;;;;;13.18;3.05;;;;;;;-145.50;100.00;65435.88;5010505;28;20083;-72
2023/04/25 07:11:56;;;;;;;10.00;2.72;;;;;;;-145.50;100.00;65435.88;5041881;28;20099;-72
2023/04/25 07:14:23;;;;;;;10.48;2.70;;;;;;;-145.50;100.00;65435.88;5047943;28;20445;-73
2023/04/25 07:16:51;;;;;;;10.05;2.90;;;;;;;-145.50;100.00;65435.88;5042262;28;20146;-73
2023/04/25 07:19:17;;;;;;;9.90;2.70;;;;;;;-145.50;100.00;65435.88;5043091;28;20075;-74
2023/04/25 07:21:43;;;;;;;10.70;2.72;;;;;;;-145.50;100.00;65435.88;5047357;28;20068;-73
2023/04/25 07:24:10;;;;;;;8.90;2.53;;;;;;;-145.50;100.00;65435.88;5041523;28;20057;-73
2023/04/25 07:26:37;;;;;;;17.90;3.58;;;;;;;-145.50;100.00;65435.88;5031586;28;20057;-74
2023/04/25 07:29:03;;;;;;;11.27;2.78;;;;;;;-145.50;100.00;65435.88;5047617;28;20108;-73
2023/04/25 07:31:30;;;;;;;8.38;2.47;;;;;;;-145.50;100.00;65435.88;5024124;28;20048;-74
2023/04/25 07:33:56;;;;;;;14.30;2.72;;;;;;;-145.50;100.00;65435.88;5049933;28;20056;-75
2023/04/25 07:36:27;;;;;;;11.88;3.30;;;;;;;-145.50;100.00;65435.88;5045719;28;20088;-74
2023/04/25 07:38:53;;;;;;;7.35;2.13;;;;;;;-145.50;100.00;65435.88;5044852;28;20140;-74
2023/04/25 07:41:20;;;;;;;9.25;2.53;;;;;;;-145.50;100.00;65435.88;5042069;28;20674;-74
2023/04/25 07:43:46;;;;;;;10.68;2.30;;;;;;;-145.50;100.00;65435.88;5029322;28;20511;-75
2023/04/25 07:46:13;;;;;;;8.75;2.30;;;;;;;-145.50;100.00;65435.88;5046587;28;20096;-73
2023/04/25 07:48:39;;;;;;;9.10;1.85;;;;;;;-145.50;100.00;65435.88;5032236;28;20052;-74
2023/04/25 07:51:07;;;;;;;13.52;2.40;;;;;;;-145.50;100.00;65435.88;5060631;28;20036;-75
2023/04/25 07:53:34;;;;;;;4.28;1.50;;;;;;;-145.50;100.00;65435.88;5040829;28;20056;-74
2023/04/25 07:56:01;;;;;;;6.63;1.77;;;;;;;-145.50;100.00;65435.88;5030540;28;20045;-74
2023/04/25 07:58:27;;;;;;;14.77;2.10;;;;;;;-145.50;100.00;65435.88;5068279;28;20045;-74
2023/04/25 08:00:54;;;;;;;8.55;2.00;;;;;;;-145.50;100.00;65435.88;5073745;28;20108;-74
2023/04/25 08:03:21;;;;;;;7.90;2.28;;;;;;;-145.50;100.00;65435.88;5050452;28;20060;-74
2023/04/25 08:05:48;;;;;;;6.18;2.20;;;;;;;-145.50;100.00;65435.88;5044056;28;20045;-74
2023/04/25 08:08:14;;;;;;;9.10;2.17;;;;;;;-145.50;100.00;65435.88;5046678;28;20053;-73
2023/04/25 08:10:41;;;;;;;10.73;2.00;;;;;;;-145.50;100.00;65435.88;5038352;28;20044;-74
2023/04/25 08:13:08;;;;;;;9.85;1.77;;;;;;;-145.50;100.00;65435.88;5054482;28;20053;-74
2023/04/25 08:15:34;;;;;;;5.60;1.42;;;;;;;-145.50;100.00;65435.88;5061115;28;20052;-74
2023/04/25 08:18:01;;;;;;;6.05;1.20;;;;;;;-145.50;100.00;65435.88;5051714;28;20565;-74
2023/04/25 08:20:28;;;;;;;9.80;2.00;;;;;;;-145.50;100.00;65435.88;5049469;28;20081;-71
2023/04/25 08:22:54;;;;;;;11.18;1.88;;;;;;;-145.50;100.00;65435.88;5038847;28;20107;-74
2023/04/25 08:25:21;;;;;;;5.78;1.33;;;;;;;-145.50;100.00;65435.88;5023535;28;20092;-75
2023/04/25 08:27:48;;;;;;;7.30;1.48;;;;;;;-145.50;100.00;65435.88;5027615;28;20048;-73
2023/04/25 08:30:14;;;;;;;6.80;1.35;;;;;;;-145.50;100.00;65435.88;5051529;28;20581;-75
2023/04/25 08:32:41;;;;;;;5.28;1.13;;;;;;;-145.50;100.00;65435.88;5054572;28;20528;-75
2023/04/25 08:35:08;;;;;;;8.48;1.27;;;;;;;-145.50;100.00;65435.88;5029912;28;20049;-75
2023/04/25 08:37:34;;;;;;;4.97;1.17;;;;;;;-145.50;100.00;65435.88;5045593;28;20564;-75
2023/04/25 08:40:01;;;;;;;7.28;1.45;;;;;;;-145.50;100.00;65435.88;5045402;28;20057;-74
2023/04/25 08:42:29;;;;;;;9.40;1.42;;;;;;;-145.50;100.00;65435.88;5055949;28;20068;-74
2023/04/25 08:44:58;;;;;;;5.15;1.50;;;;;;;-145.50;100.00;65435.88;5041721;28;20044;-74
2023/04/25 08:47:27;;;;;;;7.10;1.30;;;;;;;-145.50;100.00;65435.88;5051341;28;20099;-72
2023/04/25 08:49:54;;;;;;;4.80;1.73;;;;;;;-145.50;100.00;65435.88;5038916;28;20106;-74
2023/04/25 08:52:23;;;;;;;7.78;1.38;;;;;;;-145.50;100.00;65435.88;5043668;28;20083;-74
2023/04/25 08:54:51;;;;;;;8.65;1.45;;;;;;;-145.50;100.00;65435.88;5050825;28;20053;-74
2023/04/25 08:57:18;;;;;;;6.65;1.35;;;;;;;-145.50;100.00;65435.88;5052136;28;20061;-74
2023/04/25 08:59:46;;;;;;;9.93;1.40;;;;;;;-145.50;100.00;65435.88;5057214;28;20059;-74
2023/04/25 09:02:15;;;;;;;9.38;1.42;;;;;;;-145.50;100.00;65435.88;5051113;28;21169;-74
2023/04/25 09:04:44;;;;;;;7.22;1.42;;;;;;;-145.50;100.00;65435.88;5040630;28;20049;-73
2023/04/25 09:07:10;;;;;;;5.03;1.08;;;;;;;-145.50;100.00;65435.88;5057302;28;20076;-74
2023/04/25 09:09:37;;;;;;;4.38;1.13;;;;;;;-145.50;100.00;65435.88;5024807;28;20523;-75
2023/04/25 09:12:05;;;;;;;8.20;1.27;;;;;;;-145.50;100.00;65435.88;5050112;28;20492;-74
2023/04/25 09:14:31;;;;;;;5.85;1.10;;;;;;;-145.50;100.00;65435.88;5034103;28;20135;-74
2023/04/25 09:16:59;;;;;;;6.20;1.30;;;;;;;-145.50;100.00;65435.88;5051840;28;20048;-74
2023/04/25 09:19:35;;;;;;;4.18;1.05;;;;;;;-145.50;100.00;65435.88;5029046;28;20048;-74
2023/04/25 09:22:08;;;;;;;6.03;1.10;;;;;;;-145.50;100.00;65435.88;5027084;28;20080;-74
2023/04/25 09:24:40;;;;;;;8.52;1.30;;;;;;;-145.50;100.00;65435.88;5061081;28;20157;-74
2023/04/25 09:27:27;;;;;;;4.75;1.13;;;;;;;-145.50;100.00;65435.88;5063696;28;20056;-74
2023/04/25 09:30:00;;;;;;;6.53;1.00;;;;;;;-145.50;100.00;65435.88;5052791;28;20136;-75
2023/04/25 09:32:27;;;;;;;5.82;1.38;;;;;;;-145.50;100.00;65435.88;5055546;28;20315;-75
2023/04/25 09:34:57;;;;;;;4.97;1.10;;;;;;;-145.50;100.00;65435.88;5050095;28;20049;-75
2023/04/25 09:37:29;;;;;;;5.35;0.98;;;;;;;-145.50;100.00;65435.88;5053834;28;20056;-75
2023/04/25 09:40:03;;;;;;;6.80;1.23;;;;;;;-145.50;100.00;65435.88;5060919;28;20136;-75
2023/04/25 09:42:34;;;;;;;6.18;1.10;;;;;;;-145.50;100.00;65435.88;5040498;28;20653;-74
2023/04/25 09:45:02;;;;;;;8.52;1.65;;;;;;;-145.50;100.00;65435.88;5045308;28;20049;-75
2023/04/25 09:47:29;;;;;;;6.80;1.40;;;;;;;-145.50;100.00;65435.88;5045861;28;20156;-75
2023/04/25 09:49:55;;;;;;;2.85;1.05;;;;;;;-145.50;100.00;65435.88;5029985;28;20049;-74
2023/04/25 09:52:25;;;;;;;6.22;0.95;;;;;;;-145.50;100.00;65435.88;5062051;28;20056;-75
2023/04/25 09:54:52;;;;;;;5.88;1.40;;;;;;;-145.50;100.00;65435.88;5045523;28;20049;-75
2023/04/25 09:57:21;;;;;;;6.97;1.25;;;;;;;-145.50;100.00;65435.88;5055443;28;20077;-74
2023/04/25 09:59:53;;;;;;;4.85;0.93;;;;;;;-145.50;100.00;65435.88;5040604;28;20139;-75
2023/04/25 10:02:23;;;;;;;3.05;0.90;;;;;;;-145.50;100.00;65435.88;5065837;28;20567;-75
2023/04/25 10:04:54;;;;;;;6.95;1.25;;;;;;;-145.50;100.00;65435.88;5066213;28;20057;-75
2023/04/25 10:07:28;;;;;;;6.40;1.20;;;;;;;-145.50;100.00;65435.88;5045721;28;20045;-76
2023/04/25 10:10:03;;;;;;;4.43;1.33;;;;;;;-145.50;100.00;65435.88;5047698;28;20052;-75
2023/04/25 10:12:32;;;;;;;7.95;1.70;;;;;;;-145.50;100.00;65435.88;5031605;28;20057;-75
2023/04/25 10:15:02;;;;;;;5.22;1.08;;;;;;;-145.50;100.00;65435.88;5065029;28;20041;-75
2023/04/25 10:17:31;;;;;;;7.85;1.20;;;;;;;-145.50;100.00;65435.88;5055760;28;20068;-75
2023/04/25 10:20:01;;;;;;;6.95;1.13;;;;;;;-145.50;100.00;65435.88;5049796;28;20045;-74
2023/04/25 10:22:37;;;;;;;3.65;0.88;;;;;;;-145.50;100.00;65435.88;5059341;28;20101;-74
2023/04/25 10:25:06;;;;;;;3.78;1.00;;;;;;;-145.50;100.00;65435.88;5050479;28;20048;-76
2023/04/25 10:27:34;;;;;;;6.65;1.08;;;;;;;-145.50;100.00;65435.88;5043371;28;20049;-74
2023/04/25 10:30:14;;;;;;;7.13;1.50;;;;;;;-145.50;100.00;65435.88;5069652;28;20144;-74
2023/04/25 10:32:45;;;;;;;5.18;1.10;;;;;;;-145.50;100.00;65435.88;5048698;28;20049;-76
2023/04/25 10:35:16;;;;;;;8.38;0.95;;;;;;;-145.50;100.00;65435.88;5053206;28;20045;-75
2023/04/25 10:38:16;;;;;;;4.22;0.88;;;;;;;-145.50;100.00;65435.88;5049982;28;20045;-73
2023/04/25 10:41:03;;;;;;;3.97;0.70;;;;;;;-145.50;100.00;65435.88;5027529;28;20045;-73
2023/04/25 10:43:31;;;;;;;3.78;1.05;;;;;;;-145.50;100.00;65435.88;5055181;28;20053;-74
2023/04/25 10:46:00;;;;;;;2.88;0.82;;;;;;;-145.50;100.00;65435.88;5069756;28;20476;-74
2023/04/25 10:48:31;;;;;;;6.57;0.93;;;;;;;-145.50;100.00;65435.88;5049492;28;20041;-74
2023/04/25 10:51:15;;;;;;;6.05;1.13;;;;;;;-145.50;100.00;65435.88;5048685;28;20071;-75
2023/04/25 10:53:47;;;;;;;3.30;1.02;;;;;;;-145.50;100.00;65435.88;5073376;28;20418;-73
2023/04/25 10:56:20;;;;;;;8.23;1.75;;;;;;;-145.50;100.00;65435.88;5043284;28;20057;-74
2023/04/25 10:58:48;;;;;;;7.15;1.20;;;;;;;-145.50;100.00;65435.88;5030970;28;20057;-75
2023/04/25 11:01:24;;;;;;;7.05;1.50;;;;;;;-145.50;100.00;65435.88;5053636;28;20059;-75
2023/04/25 11:03:57;;;;;;;7.10;1.30;;;;;;;-145.50;100.00;65435.88;5045170;28;20122;-75
2023/04/25 11:06:44;;;;;;;7.93;1.20;;;;;;;-145.50;100.00;65435.88;5042997;28;20167;-75